Time;durP1;ratioP1;P1;durP2;ratioP2;P2;SDS_P1;SDS_P2;PMS_P1;PMS_P2;Temp;Humidity;BMP_temperature;BMP_pressure;BME280_temperature;BME280_humidity;BME280_pressure;Samples;Min_cycle;Max_cycle;Signal;HPM_P1;HPM_P2
2023/09/14 00:00:27;;;;;;;1.52;1.10;;;;;;;9.77;100.00;102194.50;1048616;28;20306;-55
2023/09/14 00:01:01;;;;;;;1.10;0.95;;;;;;;9.74;100.00;102190.38;1052801;28;20332;-55
2023/09/14 00:01:33;;;;;;;1.83;0.80;;;;;;;9.73;100.00;102194.03;1052043;28;20317;-54
2023/09/14 00:02:04;;;;;;;0.75;0.60;;;;;;;9.73;100.00;102182.56;1052539;28;20305;-54
2023/09/14 00:02:38;;;;;;;1.05;0.90;;;;;;;9.75;100.00;102183.22;1052511;28;20867;-54
2023/09/14 00:03:09;;;;;;;0.93;0.77;;;;;;;9.75;100.00;102185.88;1052669;28;20774;-54
2023/09/14 00:03:41;;;;;;;1.40;0.95;;;;;;;9.69;100.00;102186.59;1052591;28;20298;-54
2023/09/14 00:04:13;;;;;;;1.25;1.08;;;;;;;9.59;100.00;102181.50;1052496;28;20767;-54
2023/09/14 00:04:46;;;;;;;1.63;0.98;;;;;;;9.53;100.00;102183.00;1052550;28;20325;-54
2023/09/14 00:05:18;;;;;;;1.25;1.05;;;;;;;9.52;100.00;102185.84;1052616;28;20374;-51
2023/09/14 00:05:50;;;;;;;2.72;1.30;;;;;;;9.53;100.00;102184.84;1047893;28;20307;-52
2023/09/14 00:06:21;;;;;;;3.40;1.00;;;;;;;9.57;100.00;102189.63;1047797;28;20295;-53
2023/09/14 00:06:53;;;;;;;1.40;0.90;;;;;;;9.62;100.00;102182.97;1048435;28;20382;-51
2023/09/14 00:07:25;;;;;;;3.00;0.65;;;;;;;9.56;100.00;102182.66;1048385;28;20423;-50
2023/09/14 00:07:56;;;;;;;1.40;0.98;;;;;;;9.48;100.00;102188.03;1052411;28;20294;-54
2023/09/14 00:08:30;;;;;;;1.30;1.20;;;;;;;9.50;100.00;102187.88;1052676;28;20294;-54
2023/09/14 00:09:02;;;;;;;3.63;1.38;;;;;;;9.48;100.00;102185.38;1051599;28;20381;-54
2023/09/14 00:09:33;;;;;;;4.03;1.10;;;;;;;9.50;100.00;102183.38;1052701;28;20286;-55
2023/09/14 00:10:05;;;;;;;2.20;1.20;;;;;;;9.51;100.00;102190.34;1048106;28;20365;-54
2023/09/14 00:10:37;;;;;;;1.90;1.23;;;;;;;9.56;100.00;102187.97;1047833;28;20376;-52
2023/09/14 00:11:09;;;;;;;3.20;1.27;;;;;;;9.56;100.00;102185.31;1047970;28;20294;-53
2023/09/14 00:11:40;;;;;;;6.78;1.10;;;;;;;9.66;100.00;102186.94;1048582;28;20349;-52
2023/09/14 00:12:12;;;;;;;1.25;1.00;;;;;;;9.66;100.00;102190.44;1049872;28;20310;-51
2023/09/14 00:12:44;;;;;;;1.52;1.10;;;;;;;9.64;100.00;102186.28;1051513;28;20324;-52
2023/09/14 00:13:15;;;;;;;3.90;1.08;;;;;;;9.53;100.00;102185.69;1052394;28;20656;-55
2023/09/14 00:13:47;;;;;;;1.73;1.00;;;;;;;9.37;100.00;102185.78;1052196;28;20364;-53
2023/09/14 00:14:19;;;;;;;3.13;0.82;;;;;;;9.35;100.00;102190.47;1052543;28;20297;-54
2023/09/14 00:14:50;;;;;;;2.33;1.17;;;;;;;9.44;100.00;102189.41;1052048;28;20667;-55
2023/09/14 00:15:22;;;;;;;2.45;1.00;;;;;;;9.53;100.00;102192.81;1052510;28;20408;-49
2023/09/14 00:15:54;;;;;;;2.60;1.45;;;;;;;9.60;100.00;102191.97;1052475;28;20302;-52
2023/09/14 00:16:25;;;;;;;5.45;1.23;;;;;;;9.58;100.00;102185.16;1052112;28;20306;-51
2023/09/14 00:16:57;;;;;;;1.00;0.80;;;;;;;9.74;100.00;102194.84;1051942;28;20734;-50
2023/09/14 00:17:29;;;;;;;1.83;0.73;;;;;;;9.77;100.00;102190.00;1051913;28;20294;-52
2023/09/14 00:18:01;;;;;;;2.88;1.30;;;;;;;9.74;100.00;102195.69;1052293;28;20755;-50
2023/09/14 00:18:32;;;;;;;5.80;0.98;;;;;;;9.72;100.00;102196.88;1052421;28;20372;-54
2023/09/14 00:19:04;;;;;;;1.20;1.02;;;;;;;9.74;100.00;102195.69;1052998;28;20306;-54
2023/09/14 00:19:36;;;;;;;2.05;0.80;;;;;;;9.69;100.00;102189.25;1053011;28;20309;-52
2023/09/14 00:20:09;;;;;;;4.15;1.15;;;;;;;9.77;100.00;102191.84;1051765;28;20309;-49
2023/09/14 00:20:42;;;;;;;4.80;1.10;;;;;;;9.81;100.00;102191.31;1051901;28;20306;-54
2023/09/14 00:21:13;;;;;;;5.05;1.30;;;;;;;9.96;100.00;102193.19;1052056;28;20302;-54
2023/09/14 00:21:45;;;;;;;3.65;1.48;;;;;;;10.00;100.00;102189.16;1052156;28;20298;-53
2023/09/14 00:22:16;;;;;;;3.25;1.13;;;;;;;9.87;100.00;102190.63;1051978;28;20667;-55
2023/09/14 00:22:52;;;;;;;1.55;1.00;;;;;;;9.89;100.00;102193.09;1053676;28;20687;-53
2023/09/14 00:23:24;;;;;;;9.20;2.92;;;;;;;9.81;100.00;102190.47;1052665;28;20425;-53
2023/09/14 00:23:55;;;;;;;3.70;1.17;;;;;;;9.80;100.00;102183.50;1053089;28;20699;-52
2023/09/14 00:24:27;;;;;;;3.00;1.10;;;;;;;9.72;100.00;102187.06;1052143;28;20849;-53
2023/09/14 00:24:58;;;;;;;3.15;1.40;;;;;;;9.74;100.00;102190.38;1051818;28;20632;-52
2023/09/14 00:25:30;;;;;;;1.92;1.17;;;;;;;9.63;100.00;102187.31;1052009;28;20367;-53
2023/09/14 00:26:02;;;;;;;3.05;0.95;;;;;;;9.62;100.00;102185.66;1052223;28;20293;-54
2023/09/14 00:26:34;;;;;;;3.03;1.08;;;;;;;9.57;100.00;102186.97;1051809;28;20305;-54
2023/09/14 00:27:06;;;;;;;4.15;1.30;;;;;;;9.58;100.00;102190.47;1052444;28;20289;-51
2023/09/14 00:27:38;;;;;;;1.73;1.05;;;;;;;9.67;100.00;102185.94;1053119;28;20662;-54
2023/09/14 00:28:10;;;;;;;2.03;0.93;;;;;;;9.77;100.00;102189.19;1052488;28;20298;-50
2023/09/14 00:28:41;;;;;;;2.75;1.17;;;;;;;9.80;100.00;102189.66;1047721;28;20310;-55
2023/09/14 00:29:13;;;;;;;3.30;1.30;;;;;;;9.69;100.00;102186.59;1047510;28;20302;-54
2023/09/14 00:29:47;;;;;;;4.15;1.25;;;;;;;9.55;100.00;102190.81;1048129;28;20295;-54
2023/09/14 00:30:20;;;;;;;4.88;1.23;;;;;;;9.47;100.00;102183.72;1049048;28;20302;-54
2023/09/14 00:30:52;;;;;;;5.82;1.20;;;;;;;9.56;100.00;102187.97;1047603;28;20336;-51
2023/09/14 00:31:24;;;;;;;1.13;0.73;;;;;;;9.49;100.00;102181.72;1043368;28;20394;-52
2023/09/14 00:31:56;;;;;;;1.33;1.10;;;;;;;9.52;100.00;102189.34;1041124;28;20336;-49
2023/09/14 00:32:28;;;;;;;1.20;0.80;;;;;;;9.51;100.00;102185.03;1039423;28;20311;-50
2023/09/14 00:33:00;;;;;;;1.20;1.10;;;;;;;9.62;100.00;102185.66;1040048;28;20348;-53
2023/09/14 00:33:31;;;;;;;3.70;1.00;;;;;;;9.59;100.00;102185.00;1044226;28;20365;-50
2023/09/14 00:34:03;;;;;;;1.00;0.85;;;;;;;9.60;100.00;102189.31;1043790;28;20394;-51
2023/09/14 00:34:35;;;;;;;2.10;1.20;;;;;;;9.68;100.00;102187.59;1047390;28;20303;-52
2023/09/14 00:35:07;;;;;;;2.75;1.15;;;;;;;9.69;100.00;102191.91;1048177;28;20788;-52
2023/09/14 00:35:39;;;;;;;1.13;0.95;;;;;;;9.65;100.00;102185.28;1048103;28;20306;-50
2023/09/14 00:36:11;;;;;;;1.08;0.88;;;;;;;9.72;100.00;102191.53;1052488;28;20301;-53
2023/09/14 00:36:42;;;;;;;4.13;1.33;;;;;;;9.76;100.00;102184.84;1052435;28;20298;-50
2023/09/14 00:37:14;;;;;;;1.42;0.80;;;;;;;9.83;100.00;102185.78;1052062;28;20321;-52
2023/09/14 00:37:46;;;;;;;1.77;0.73;;;;;;;9.77;100.00;102191.84;1052661;28;20301;-53
2023/09/14 00:38:18;;;;;;;1.35;0.80;;;;;;;9.89;100.00;102185.94;1045579;28;20296;-52
2023/09/14 00:38:49;;;;;;;1.65;0.68;;;;;;;9.78;100.00;102185.50;1047927;28;20299;-54
2023/09/14 00:39:21;;;;;;;1.25;0.85;;;;;;;9.80;100.00;102186.16;1048028;28;20294;-54
2023/09/14 00:39:53;;;;;;;0.88;0.70;;;;;;;9.79;100.00;102181.84;1048551;28;20290;-54
2023/09/14 00:40:26;;;;;;;0.60;0.60;;;;;;;9.81;100.00;102182.50;1052338;28;20325;-54
2023/09/14 00:40:57;;;;;;;1.77;0.95;;;;;;;9.79;100.00;102187.16;1047657;28;20445;-54
2023/09/14 00:41:29;;;;;;;2.92;1.00;;;;;;;9.78;100.00;102188.16;1047918;28;20798;-55
2023/09/14 00:42:01;;;;;;;1.88;1.10;;;;;;;9.70;100.00;102180.25;1048444;28;20680;-52
2023/09/14 00:42:43;;;;;;;1.48;1.17;;;;;;;9.72;100.00;102188.88;1048607;28;20401;-54
2023/09/14 00:43:14;;;;;;;1.33;0.95;;;;;;;9.76;100.00;102187.53;1047670;28;20338;-55
2023/09/14 00:43:46;;;;;;;3.58;0.90;;;;;;;9.77;100.00;102184.69;1040680;28;20659;-54
2023/09/14 00:44:18;;;;;;;1.80;0.80;;;;;;;9.75;100.00;102185.88;1039319;28;20387;-54
2023/09/14 00:44:49;;;;;;;0.65;0.60;;;;;;;9.74;100.00;102189.53;1043338;28;20291;-53
2023/09/14 00:45:21;;;;;;;2.85;1.30;;;;;;;9.76;100.00;102184.84;1043948;28;20311;-55
2023/09/14 00:45:54;;;;;;;4.95;1.38;;;;;;;9.77;100.00;102189.19;1048331;28;20753;-55
2023/09/14 00:46:25;;;;;;;1.15;0.85;;;;;;;9.80;100.00;102186.16;1052337;28;20327;-55
2023/09/14 00:46:58;;;;;;;5.60;1.08;;;;;;;9.79;100.00;102187.16;1047627;28;20361;-54
2023/09/14 00:47:30;;;;;;;1.50;1.15;;;;;;;9.79;100.00;102181.84;1039702;28;20315;-54
2023/09/14 00:48:02;;;;;;;1.38;1.00;;;;;;;9.89;100.00;102188.59;1039906;28;20327;-54
2023/09/14 00:48:35;;;;;;;4.70;1.38;;;;;;;9.89;100.00;102187.78;1036022;28;20581;-54
2023/09/14 00:49:07;;;;;;;2.00;1.55;;;;;;;9.82;100.00;102186.81;1040087;28;20701;-54
2023/09/14 00:49:39;;;;;;;2.05;1.17;;;;;;;9.86;100.00;102193.41;1048138;28;20320;-54
2023/09/14 00:50:15;;;;;;;3.13;1.38;;;;;;;9.96;100.00;102180.72;1048233;28;20705;-54
2023/09/14 00:50:47;;;;;;;2.28;1.33;;;;;;;10.03;100.00;102184.31;1047674;28;20307;-54
2023/09/14 00:51:19;;;;;;;1.85;1.58;;;;;;;10.03;100.00;102179.00;1048084;28;20291;-54
2023/09/14 00:51:51;;;;;;;4.75;0.90;;;;;;;10.02;100.00;102181.81;1047506;28;20295;-53
2023/09/14 00:52:23;;;;;;;2.92;1.60;;;;;;;10.00;100.00;102183.84;1048740;28;20370;-54
2023/09/14 00:53:06;;;;;;;1.15;0.98;;;;;;;10.00;100.00;102178.53;1052474;28;20298;-55
2023/09/14 00:53:38;;;;;;;6.22;1.30;;;;;;;10.14;100.00;102183.06;1052517;28;20365;-54
2023/09/14 00:54:10;;;;;;;3.45;1.38;;;;;;;10.31;100.00;102183.75;1052074;28;20298;-54
2023/09/14 00:54:41;;;;;;;2.80;1.08;;;;;;;10.40;100.00;102180.81;1047757;28;20313;-54
2023/09/14 00:55:17;;;;;;;3.63;1.38;;;;;;;10.38;100.00;102176.69;1043325;28;20318;-53
2023/09/14 00:55:49;;;;;;;3.85;1.73;;;;;;;10.45;100.00;102177.63;1035917;28;20398;-54
2023/09/14 00:56:21;;;;;;;2.38;1.58;;;;;;;10.47;100.00;102181.78;1036621;28;20386;-53
2023/09/14 00:56:52;;;;;;;3.75;1.75;;;;;;;10.46;100.00;102177.44;1037087;28;20308;-54
2023/09/14 00:57:24;;;;;;;4.53;1.73;;;;;;;10.45;100.00;102178.47;1043679;28;20401;-54
2023/09/14 00:57:57;;;;;;;3.33;1.23;;;;;;;10.50;100.00;102185.91;1041186;28;20299;-54
2023/09/14 00:58:28;;;;;;;1.95;1.38;;;;;;;10.56;100.00;102177.16;1043648;28;20746;-51
2023/09/14 00:59:00;;;;;;;1.92;1.20;;;;;;;10.59;100.00;102184.78;1043919;28;20295;-52
2023/09/14 00:59:32;;;;;;;4.30;1.77;;;;;;;10.63;100.00;102183.41;1032940;28;20309;-50
2023/09/14 01:00:10;;;;;;;4.65;2.55;;;;;;;10.66;100.00;102174.22;1035853;28;20384;-51
2023/09/14 01:00:43;;;;;;;2.25;1.33;;;;;;;10.72;100.00;102177.00;1040929;28;20292;-50
2023/09/14 01:01:15;;;;;;;1.63;0.98;;;;;;;10.76;100.00;102175.63;1034368;28;20312;-52
2023/09/14 01:01:48;;;;;;;2.85;1.52;;;;;;;10.77;100.00;102171.94;1034965;28;20850;-54
2023/09/14 01:02:20;;;;;;;7.20;1.50;;;;;;;10.78;100.00;102168.25;1031885;28;20368;-55
2023/09/14 01:02:54;;;;;;;8.57;1.90;;;;;;;10.78;100.00;102178.94;1032940;28;20316;-54
2023/09/14 01:03:26;;;;;;;1.67;1.58;;;;;;;10.71;100.00;102172.69;1036788;28;20329;-54
2023/09/14 01:03:59;;;;;;;3.83;1.88;;;;;;;10.55;100.00;102175.53;1040475;28;20439;-54
2023/09/14 01:04:30;;;;;;;3.22;1.60;;;;;;;10.39;100.00;102168.50;1037978;28;20308;-54
2023/09/14 01:05:05;;;;;;;2.13;1.42;;;;;;;10.29;100.00;102183.13;1039616;28;20326;-54
2023/09/14 01:05:39;;;;;;;4.93;1.25;;;;;;;10.23;100.00;102178.53;1039680;28;20296;-54
2023/09/14 01:06:11;;;;;;;5.38;1.88;;;;;;;10.15;100.00;102176.75;1040415;28;21079;-54
2023/09/14 01:06:43;;;;;;;1.73;1.00;;;;;;;10.12;100.00;102174.41;1041006;28;20948;-50
2023/09/14 01:07:17;;;;;;;1.70;1.60;;;;;;;10.06;100.00;102175.97;1045072;28;20291;-51
2023/09/14 01:07:49;;;;;;;3.80;1.40;;;;;;;10.20;100.00;102177.00;1043502;28;20299;-52
2023/09/14 01:08:21;;;;;;;8.05;2.78;;;;;;;10.33;100.00;102179.06;1044359;28;20300;-51
2023/09/14 01:08:54;;;;;;;7.10;1.65;;;;;;;10.42;100.00;102178.00;1045395;28;20338;-51
2023/09/14 01:09:25;;;;;;;6.95;1.63;;;;;;;10.23;100.00;102179.34;1044157;28;20303;-52
2023/09/14 01:09:57;;;;;;;4.50;1.15;;;;;;;10.19;100.00;102178.84;1047586;28;20309;-50
2023/09/14 01:10:29;;;;;;;2.00;1.08;;;;;;;10.10;100.00;102174.59;1043584;28;20307;-50
2023/09/14 01:11:01;;;;;;;1.33;1.15;;;;;;;10.21;100.00;102181.38;1042688;28;20295;-52
2023/09/14 01:11:33;;;;;;;7.95;1.60;;;;;;;10.29;100.00;102177.78;1043597;28;20302;-52
2023/09/14 01:12:08;;;;;;;2.53;1.13;;;;;;;10.25;100.00;102187.16;1043856;28;20661;-50
2023/09/14 01:12:47;;;;;;;3.95;1.40;;;;;;;10.25;100.00;102176.50;1044562;28;20305;-53
2023/09/14 01:13:46;;;;;;;2.72;1.40;;;;;;;10.18;100.00;102174.53;1039317;28;20304;-53
2023/09/14 01:14:23;;;;;;;1.77;1.25;;;;;;;10.16;100.00;102175.72;1040378;28;20802;-51
2023/09/14 01:15:36;;;;;;;4.20;1.20;;;;;;;10.06;100.00;102177.78;1036857;28;20786;-52
2023/09/14 01:16:15;;;;;;;2.35;1.08;;;;;;;10.19;100.00;102178.84;1042854;28;20641;-49
2023/09/14 01:16:55;;;;;;;1.60;1.30;;;;;;;10.02;100.00;102174.66;1040240;28;20389;-52
2023/09/14 01:17:53;;;;;;;1.60;1.25;;;;;;;10.07;100.00;102174.13;1035361;28;20660;-54
2023/09/14 01:18:30;;;;;;;7.63;1.35;;;;;;;9.98;100.00;102176.03;1036631;28;20406;-54
2023/09/14 01:19:17;;;;;;;1.13;1.00;;;;;;;10.10;100.00;102176.41;1037560;28;20314;-54
2023/09/14 01:20:30;;;;;;;1.70;1.38;;;;;;;9.87;100.00;102174.66;1038810;28;20393;-54
2023/09/14 01:21:08;;;;;;;2.22;1.55;;;;;;;10.08;100.00;102173.94;1034209;28;20791;-54
2023/09/14 01:21:52;;;;;;;5.97;1.38;;;;;;;10.06;100.00;102181.28;1037832;28;20311;-54
2023/09/14 01:22:48;;;;;;;3.25;1.38;;;;;;;10.07;100.00;102176.78;1046167;28;20314;-54
2023/09/14 01:23:41;;;;;;;5.72;2.00;;;;;;;10.37;100.00;102183.84;1041179;28;20291;-54
2023/09/14 01:24:26;;;;;;;2.53;2.10;;;;;;;10.22;100.00;102183.03;1037520;28;20395;-51
2023/09/14 01:24:58;;;;;;;1.50;1.33;;;;;;;10.19;100.00;102181.50;1040488;28;20324;-53
2023/09/14 01:25:44;;;;;;;6.15;1.35;;;;;;;10.36;100.00;102178.72;1043302;28;20296;-53
2023/09/14 01:26:17;;;;;;;1.48;1.38;;;;;;;10.36;100.00;102181.38;1043398;28;20295;-54
2023/09/14 01:26:49;;;;;;;3.75;1.67;;;;;;;10.58;100.00;102177.81;1039455;28;20390;-53
2023/09/14 01:27:22;;;;;;;4.75;1.92;;;;;;;10.65;100.00;102178.72;1040359;28;20296;-54
2023/09/14 01:28:05;;;;;;;2.97;1.60;;;;;;;10.77;100.00;102171.13;1042926;28;20667;-54
2023/09/14 01:28:37;;;;;;;1.83;1.17;;;;;;;10.81;100.00;102177.72;1041587;28;20381;-54
2023/09/14 01:29:08;;;;;;;5.38;1.40;;;;;;;10.74;100.00;102177.66;1038944;28;20651;-54
2023/09/14 01:29:40;;;;;;;4.68;2.08;;;;;;;10.73;100.00;102181.31;1041203;28;20307;-54
2023/09/14 01:30:12;;;;;;;2.58;1.67;;;;;;;10.57;100.00;102180.66;1038810;28;20643;-55
2023/09/14 01:30:43;;;;;;;6.15;1.55;;;;;;;10.56;100.00;102181.69;1035276;28;20387;-54
2023/09/14 01:31:16;;;;;;;3.20;1.60;;;;;;;10.43;100.00;102177.81;1035363;28;20378;-54
2023/09/14 01:31:47;;;;;;;4.47;1.27;;;;;;;10.27;100.00;102185.13;1039210;28;20335;-54
2023/09/14 01:32:19;;;;;;;4.80;1.80;;;;;;;10.15;100.00;102176.75;1037295;28;20666;-54
2023/09/14 01:32:50;;;;;;;1.45;1.30;;;;;;;10.28;100.00;102173.47;1043247;28;20295;-54
2023/09/14 01:33:25;;;;;;;6.72;1.55;;;;;;;10.39;100.00;102178.34;1043404;28;20303;-54
2023/09/14 01:33:57;;;;;;;4.32;2.17;;;;;;;10.60;100.00;102180.28;1043943;28;20303;-52
2023/09/14 01:34:29;;;;;;;1.75;1.35;;;;;;;10.76;100.00;102175.63;1040058;28;20308;-51
2023/09/14 01:35:01;;;;;;;7.47;1.52;;;;;;;10.78;100.00;102180.75;1040396;28;20308;-54
2023/09/14 01:35:37;;;;;;;2.17;1.50;;;;;;;10.79;100.00;102175.25;1036069;28;20675;-50
2023/09/14 01:36:16;;;;;;;7.35;1.83;;;;;;;10.81;100.00;102178.56;1036346;28;20798;-51
2023/09/14 01:36:58;;;;;;;1.65;1.30;;;;;;;10.69;100.00;102180.03;1032995;28;20309;-52
2023/09/14 01:37:32;;;;;;;1.95;1.60;;;;;;;10.35;100.00;102177.88;1031145;28;20704;-54
2023/09/14 01:38:03;;;;;;;2.03;1.50;;;;;;;10.42;100.00;102178.84;1034689;28;20296;-54
2023/09/14 01:38:35;;;;;;;3.00;1.65;;;;;;;10.30;100.00;102176.78;1034743;28;20305;-54
2023/09/14 01:39:07;;;;;;;5.75;2.22;;;;;;;10.29;100.00;102177.78;1036646;28;20316;-55
2023/09/14 01:39:39;;;;;;;2.72;1.60;;;;;;;10.11;100.00;102175.41;1039323;28;20819;-53
2023/09/14 01:40:11;;;;;;;2.17;1.50;;;;;;;10.15;100.00;102177.56;1031291;28;20316;-53
2023/09/14 01:40:44;;;;;;;1.40;1.20;;;;;;;10.19;100.00;102180.69;1032361;28;20301;-51
2023/09/14 01:41:16;;;;;;;4.20;1.45;;;;;;;10.30;100.00;102174.94;1031514;28;20313;-49
2023/09/14 01:41:54;;;;;;;2.42;1.25;;;;;;;10.25;100.00;102171.16;1036645;28;20296;-52
2023/09/14 01:42:27;;;;;;;2.33;1.83;;;;;;;10.08;100.00;102173.94;1039516;28;20300;-52
2023/09/14 01:42:59;;;;;;;4.07;1.50;;;;;;;9.97;100.00;102174.38;1035608;28;20301;-54
2023/09/14 01:43:31;;;;;;;2.67;1.55;;;;;;;9.87;100.00;102174.66;1039184;28;20701;-54
2023/09/14 01:44:04;;;;;;;2.35;1.30;;;;;;;9.79;100.00;102172.03;1031178;28;20787;-54
2023/09/14 01:44:35;;;;;;;2.90;1.20;;;;;;;9.85;100.00;102181.13;1036614;28;20305;-50
2023/09/14 01:45:10;;;;;;;2.58;1.15;;;;;;;9.96;100.00;102177.22;1039784;28;20300;-49
2023/09/14 01:45:42;;;;;;;2.53;1.35;;;;;;;10.05;100.00;102182.28;1036155;28;20301;-52
2023/09/14 01:46:14;;;;;;;4.35;1.00;;;;;;;10.10;100.00;102182.56;1034585;28;20676;-50
2023/09/14 01:46:48;;;;;;;1.85;1.30;;;;;;;10.01;100.00;102170.34;1035642;28;20301;-51
2023/09/14 01:47:20;;;;;;;2.28;2.05;;;;;;;9.92;100.00;102176.75;1035119;28;20312;-53
2023/09/14 01:47:53;;;;;;;1.90;1.45;;;;;;;10.06;100.00;102178.63;1038590;28;20289;-55
2023/09/14 01:48:24;;;;;;;3.10;1.30;;;;;;;10.15;100.00;102182.88;1040090;28;20300;-54
2023/09/14 01:48:56;;;;;;;2.58;1.67;;;;;;;10.14;100.00;102175.91;1039919;28;20450;-54
2023/09/14 01:49:28;;;;;;;5.75;1.58;;;;;;;10.11;100.00;102180.75;1039349;28;20494;-54
2023/09/14 01:50:00;;;;;;;4.55;1.23;;;;;;;10.15;100.00;102174.91;1041097;28;20303;-54
2023/09/14 01:50:32;;;;;;;3.70;1.65;;;;;;;10.11;100.00;102186.06;1043364;28;20801;-51
2023/09/14 01:51:03;;;;;;;2.80;1.38;;;;;;;10.12;100.00;102175.22;1043973;28;20306;-50
2023/09/14 01:51:35;;;;;;;2.15;1.30;;;;;;;10.17;100.00;102172.88;1043170;28;20315;-53
2023/09/14 01:52:07;;;;;;;3.50;1.52;;;;;;;10.27;100.00;102177.16;1044110;28;20307;-52
2023/09/14 01:52:38;;;;;;;2.63;1.20;;;;;;;10.23;100.00;102181.19;1039685;28;20307;-51
2023/09/14 01:53:10;;;;;;;7.78;1.50;;;;;;;10.17;100.00;102180.88;1043805;28;20291;-52
2023/09/14 01:53:42;;;;;;;2.08;1.13;;;;;;;10.03;100.00;102179.00;1047802;28;20291;-50
2023/09/14 01:54:14;;;;;;;4.90;1.33;;;;;;;10.07;100.00;102180.28;1047429;28;20313;-53
2023/09/14 01:54:45;;;;;;;3.65;1.73;;;;;;;10.02;100.00;102180.00;1052726;28;20333;-54
2023/09/14 01:55:17;;;;;;;2.03;1.33;;;;;;;9.94;100.00;102180.06;1052754;28;20290;-54
2023/09/14 01:55:48;;;;;;;2.42;1.70;;;;;;;9.97;100.00;102177.03;1047438;28;20467;-50
2023/09/14 01:56:20;;;;;;;1.70;1.20;;;;;;;9.95;100.00;102178.25;1043167;28;20349;-52
2023/09/14 01:56:52;;;;;;;1.33;1.23;;;;;;;9.80;100.00;102178.16;1040513;28;20349;-51
2023/09/14 01:57:26;;;;;;;1.85;1.20;;;;;;;9.76;100.00;102182.19;1040276;28;20304;-51
2023/09/14 01:57:58;;;;;;;1.40;1.30;;;;;;;9.85;100.00;102173.13;1038873;28;20292;-51
2023/09/14 01:58:30;;;;;;;2.70;1.60;;;;;;;9.83;100.00;102177.81;1038816;28;20308;-55
2023/09/14 01:59:01;;;;;;;2.90;1.40;;;;;;;9.84;100.00;102182.13;1037225;28;20331;-54
2023/09/14 01:59:33;;;;;;;3.80;1.48;;;;;;;9.88;100.00;102186.13;1039356;28;20364;-54
2023/09/14 02:00:05;;;;;;;3.70;1.33;;;;;;;9.86;100.00;102185.44;1039685;28;20307;-54
2023/09/14 02:00:44;;;;;;;8.90;1.27;;;;;;;9.83;100.00;102169.84;1041912;28;20718;-53
2023/09/14 02:01:16;;;;;;;1.77;1.23;;;;;;;9.85;100.00;102186.44;1044469;28;20307;-54
2023/09/14 02:01:47;;;;;;;2.00;1.30;;;;;;;9.82;100.00;102181.47;1044166;28;20405;-54
2023/09/14 02:02:23;;;;;;;1.77;1.00;;;;;;;9.76;100.00;102185.69;1043759;28;20353;-54
2023/09/14 02:02:54;;;;;;;3.20;1.25;;;;;;;9.82;100.00;102176.16;1043228;28;20350;-54
2023/09/14 02:03:26;;;;;;;4.03;1.60;;;;;;;9.82;100.00;102176.16;1044631;28;20370;-54
2023/09/14 02:03:58;;;;;;;4.65;1.55;;;;;;;9.84;100.00;102180.28;1044279;28;20303;-54
2023/09/14 02:04:30;;;;;;;3.20;1.63;;;;;;;10.07;100.00;102174.94;1040305;28;20304;-54
2023/09/14 02:05:09;;;;;;;4.15;1.48;;;;;;;10.25;100.00;102171.16;1042999;28;20310;-54
2023/09/14 02:05:41;;;;;;;3.45;1.65;;;;;;;10.36;100.00;102178.72;1043760;28;20300;-54
2023/09/14 02:06:12;;;;;;;2.42;1.60;;;;;;;10.45;100.00;102166.97;1043972;28;20449;-54
2023/09/14 02:06:44;;;;;;;4.53;1.50;;;;;;;10.53;100.00;102167.72;1047293;28;20298;-54
2023/09/14 02:07:16;;;;;;;1.80;1.33;;;;;;;10.55;100.00;102175.53;1048797;28;20291;-51
2023/09/14 02:07:47;;;;;;;2.40;1.30;;;;;;;10.57;100.00;102165.50;1047920;28;20309;-53
2023/09/14 02:08:19;;;;;;;1.95;0.98;;;;;;;10.60;100.00;102162.47;1051732;28;20294;-53
2023/09/14 02:08:51;;;;;;;4.95;0.90;;;;;;;10.56;100.00;102169.19;1052365;28;20697;-54
2023/09/14 02:09:25;;;;;;;4.75;1.05;;;;;;;10.58;100.00;102161.81;1047382;28;20813;-53
2023/09/14 02:09:57;;;;;;;1.50;1.40;;;;;;;10.59;100.00;102163.47;1047119;28;20344;-54
2023/09/14 02:10:29;;;;;;;10.98;1.05;;;;;;;10.56;100.00;102163.03;1043563;28;20697;-54
2023/09/14 02:11:00;;;;;;;0.82;0.77;;;;;;;10.53;100.00;102159.72;1044049;28;20429;-49
2023/09/14 02:11:33;;;;;;;2.22;0.80;;;;;;;10.51;100.00;102158.25;1047218;28;20611;-51
2023/09/14 02:12:08;;;;;;;2.10;0.90;;;;;;;10.50;100.00;102157.44;1048923;28;20320;-53
2023/09/14 02:12:40;;;;;;;3.35;0.90;;;;;;;10.39;100.00;102155.19;1051981;28;20294;-54
2023/09/14 02:13:11;;;;;;;1.30;1.20;;;;;;;10.19;100.00;102152.22;1051819;28;20738;-54
2023/09/14 02:13:43;;;;;;;3.33;1.75;;;;;;;9.93;100.00;102159.78;1047598;28;20391;-52
2023/09/14 02:14:16;;;;;;;3.03;1.10;;;;;;;9.95;100.00;102155.09;1047556;28;20356;-52
2023/09/14 02:14:47;;;;;;;1.52;1.23;;;;;;;9.86;100.00;102161.47;1043148;28;20831;-49
2023/09/14 02:15:21;;;;;;;2.88;1.33;;;;;;;9.94;100.00;102158.78;1041938;28;20292;-52
2023/09/14 02:15:53;;;;;;;1.45;1.27;;;;;;;9.85;100.00;102146.53;1046982;28;20656;-52
2023/09/14 02:16:25;;;;;;;5.35;1.40;;;;;;;9.87;100.00;102157.84;1048227;28;20286;-50
2023/09/14 02:16:56;;;;;;;3.42;1.50;;;;;;;10.00;100.00;102155.38;1052168;28;20316;-52
2023/09/14 02:17:30;;;;;;;1.75;1.17;;;;;;;10.04;100.00;102154.03;1049019;28;20325;-52
2023/09/14 02:18:02;;;;;;;5.32;2.05;;;;;;;10.16;100.00;102155.25;1046764;28;20749;-52
2023/09/14 02:18:34;;;;;;;4.55;1.40;;;;;;;10.19;100.00;102152.22;1048135;28;20294;-48
2023/09/14 02:19:13;;;;;;;2.60;1.77;;;;;;;10.19;100.00;102160.22;1047697;28;20299;-54
2023/09/14 02:19:45;;;;;;;7.82;1.55;;;;;;;10.25;100.00;102164.00;1048675;28;20660;-54
2023/09/14 02:20:16;;;;;;;3.28;1.60;;;;;;;10.23;100.00;102157.22;1047262;28;20332;-54
2023/09/14 02:20:48;;;;;;;2.55;1.02;;;;;;;10.23;100.00;102157.22;1047441;28;20298;-54
2023/09/14 02:21:20;;;;;;;6.63;1.98;;;;;;;10.23;100.00;102159.88;1043685;28;20331;-52
2023/09/14 02:21:52;;;;;;;4.30;1.90;;;;;;;10.18;100.00;102160.41;1043739;28;20693;-54
2023/09/14 02:22:24;;;;;;;4.25;2.38;;;;;;;10.00;100.00;102163.38;1047369;28;20298;-54
2023/09/14 02:22:55;;;;;;;3.60;1.77;;;;;;;9.96;100.00;102162.09;1047442;28;20303;-53
2023/09/14 02:23:27;;;;;;;2.75;1.50;;;;;;;9.90;100.00;102157.50;1051774;28;20771;-54
2023/09/14 02:23:59;;;;;;;5.93;1.85;;;;;;;9.90;100.00;102160.16;1052075;28;20784;-51
2023/09/14 02:24:30;;;;;;;5.07;1.83;;;;;;;9.85;100.00;102158.00;1047610;28;20341;-54
2023/09/14 02:25:02;;;;;;;4.38;1.70;;;;;;;9.90;100.00;102157.50;1047996;28;20338;-52
2023/09/14 02:25:34;;;;;;;1.90;1.73;;;;;;;9.87;100.00;102157.84;1047006;28;20859;-52
2023/09/14 02:26:06;;;;;;;7.53;1.48;;;;;;;9.80;100.00;102162.22;1047185;28;20298;-50
2023/09/14 02:26:37;;;;;;;1.45;1.35;;;;;;;9.76;100.00;102152.94;1047076;28;20307;-54
2023/09/14 02:27:09;;;;;;;2.22;1.70;;;;;;;9.75;100.00;102153.94;1047625;28;20381;-54
2023/09/14 02:27:40;;;;;;;1.92;1.23;;;;;;;9.68;100.00;102163.66;1051896;28;20286;-54
2023/09/14 02:28:13;;;;;;;4.32;1.65;;;;;;;9.62;100.00;102159.03;1051287;28;20818;-55
2023/09/14 02:28:45;;;;;;;3.00;2.00;;;;;;;9.63;100.00;102160.69;1051265;28;20297;-54
2023/09/14 02:29:17;;;;;;;2.83;2.03;;;;;;;9.59;100.00;102155.72;1051878;28;20289;-54
2023/09/14 02:29:53;;;;;;;2.47;1.88;;;;;;;9.53;100.00;102161.72;1046905;28;20311;-54
2023/09/14 02:30:26;;;;;;;1.35;1.10;;;;;;;9.47;100.00;102161.63;1039410;28;20327;-50
2023/09/14 02:31:07;;;;;;;3.17;1.40;;;;;;;9.20;100.00;102150.47;1035428;28;20297;-54
2023/09/14 02:31:39;;;;;;;5.95;1.38;;;;;;;9.29;100.00;102148.59;1035284;28;20315;-54
2023/09/14 02:32:10;;;;;;;1.98;1.42;;;;;;;9.37;100.00;102151.22;1040267;28;20387;-54
2023/09/14 02:32:42;;;;;;;1.55;1.45;;;;;;;9.47;100.00;102157.13;1044832;28;20296;-52
2023/09/14 02:33:14;;;;;;;3.42;1.33;;;;;;;9.59;100.00;102150.41;1047899;28;20340;-52
2023/09/14 02:33:48;;;;;;;3.97;1.17;;;;;;;9.37;100.00;102150.41;1051481;28;20670;-52
2023/09/14 02:34:20;;;;;;;2.97;1.38;;;;;;;9.18;100.00;102152.50;1052609;28;20764;-51
2023/09/14 02:34:52;;;;;;;2.92;1.42;;;;;;;9.09;100.00;102153.53;1047681;28;20302;-53